TAM8701 SAEZ-SCEL
Flight info
| Callsign | TAM8701 |
|---|---|
| Flight time | 1h 40m |
| Altitude | 35000 |
| Route | URINO1E URINO UL405 TOSOR UT687 UMKAL UMKAL7C |
| Aircraft | B77W/H-SDE1E2E3FGHIJ2J3J4J5M1RWXY/LB1D1 |
Departure
| Time | 2026-05-07 12:42 |
|---|---|
| Airport | Ezeiza International Airport - Ministro Pistarini (SAEZ) |
Arrival
| Time | 2026-05-07 14:23 |
|---|---|
| Airport | Comodoro Arturo Merino Benítez International Airport (SCEL) |
| Time | Latitude | Longitude | Altitude | Speed | Heading |
|---|---|---|---|---|---|
| 2026-05-07 12:06 | -34.81559 | -58.53923 | 85 ft | 0 kts | 322° |
| 2026-05-07 12:30 | -34.81573 | -58.53909 | 85 ft | 3 kts | 322° |
| 2026-05-07 12:30 | -34.81591 | -58.53893 | 85 ft | 3 kts | 322° |
| 2026-05-07 12:31 | -34.81609 | -58.53876 | 85 ft | 3 kts | 322° |
| 2026-05-07 12:31 | -34.81627 | -58.53859 | 85 ft | 3 kts | 322° |
| 2026-05-07 12:31 | -34.81645 | -58.53843 | 85 ft | 3 kts | 322° |
| 2026-05-07 12:31 | -34.81662 | -58.53827 | 85 ft | 3 kts | 323° |
| 2026-05-07 12:32 | -34.81679 | -58.53816 | 85 ft | 3 kts | 14° |
| 2026-05-07 12:32 | -34.81691 | -58.53829 | 85 ft | 3 kts | 64° |
| 2026-05-07 12:32 | -34.81701 | -58.53852 | 85 ft | 2 kts | 47° |
| 2026-05-07 12:32 | -34.81702 | -58.53852 | 85 ft | 0 kts | 47° |
| 2026-05-07 12:36 | -34.81701 | -58.53851 | 85 ft | 4 kts | 47° |
| 2026-05-07 12:37 | -34.81690 | -58.53758 | 82 ft | 12 kts | 135° |
| 2026-05-07 12:37 | -34.81816 | -58.53680 | 84 ft | 17 kts | 155° |
| 2026-05-07 12:37 | -34.81915 | -58.53565 | 80 ft | 21 kts | 109° |
| 2026-05-07 12:37 | -34.81952 | -58.53392 | 85 ft | 21 kts | 104° |
| 2026-05-07 12:38 | -34.81987 | -58.53218 | 83 ft | 21 kts | 103° |
| 2026-05-07 12:38 | -34.82021 | -58.53044 | 85 ft | 21 kts | 104° |
| 2026-05-07 12:38 | -34.82057 | -58.52870 | 88 ft | 21 kts | 103° |
| 2026-05-07 12:38 | -34.82093 | -58.52688 | 85 ft | 22 kts | 103° |
| 2026-05-07 12:39 | -34.82130 | -58.52504 | 83 ft | 22 kts | 103° |
| 2026-05-07 12:39 | -34.82166 | -58.52320 | 84 ft | 22 kts | 103° |
| 2026-05-07 12:39 | -34.82203 | -58.52136 | 82 ft | 22 kts | 103° |
| 2026-05-07 12:39 | -34.82239 | -58.51954 | 84 ft | 22 kts | 103° |
| 2026-05-07 12:40 | -34.82266 | -58.51829 | 83 ft | 13 kts | 114° |
| 2026-05-07 12:40 | -34.82345 | -58.51795 | 83 ft | 13 kts | 188° |
| 2026-05-07 12:40 | -34.82434 | -58.51814 | 88 ft | 13 kts | 194° |
| 2026-05-07 12:40 | -34.82520 | -58.51843 | 92 ft | 13 kts | 218° |
| 2026-05-07 12:41 | -34.82528 | -58.51882 | 89 ft | 0 kts | 279° |
| 2026-05-07 12:42 | -34.82506 | -58.52014 | 86 ft | 46 kts | 281° |
| 2026-05-07 12:42 | -34.82434 | -58.52422 | 86 ft | 101 kts | 282° |
| 2026-05-07 12:42 | -34.82239 | -58.53549 | 100 ft | 166 kts | 279° |
| 2026-05-07 12:42 | -34.81998 | -58.54931 | 769 ft | 169 kts | 279° |
| 2026-05-07 12:43 | -34.81748 | -58.56334 | 1583 ft | 168 kts | 274° |
| 2026-05-07 12:43 | -34.81495 | -58.57764 | 2184 ft | 181 kts | 274° |
| 2026-05-07 12:43 | -34.81218 | -58.59381 | 2439 ft | 208 kts | 274° |
| 2026-05-07 12:43 | -34.81262 | -58.61184 | 2608 ft | 224 kts | 243° |
| 2026-05-07 12:44 | -34.82231 | -58.62707 | 2990 ft | 234 kts | 223° |
| 2026-05-07 12:44 | -34.83387 | -58.64188 | 3709 ft | 246 kts | 226° |
| 2026-05-07 12:44 | -34.84558 | -58.65771 | 4512 ft | 256 kts | 226° |
| 2026-05-07 12:44 | -34.85758 | -58.67395 | 5408 ft | 260 kts | 226° |
| 2026-05-07 12:45 | -34.86971 | -58.69036 | 6192 ft | 263 kts | 223° |
| 2026-05-07 12:45 | -34.88487 | -58.70279 | 6884 ft | 270 kts | 197° |
| 2026-05-07 12:45 | -34.90353 | -58.70532 | 7754 ft | 272 kts | 177° |
| 2026-05-07 12:45 | -34.92213 | -58.69924 | 8407 ft | 286 kts | 151° |
| 2026-05-07 12:46 | -34.93944 | -58.68687 | 8947 ft | 291 kts | 161° |
| 2026-05-07 12:46 | -34.95962 | -58.68469 | 9537 ft | 295 kts | 196° |
| 2026-05-07 12:46 | -34.97763 | -58.69611 | 10140 ft | 298 kts | 226° |
| 2026-05-07 12:46 | -34.98909 | -58.71791 | 10374 ft | 319 kts | 255° |
| 2026-05-07 12:47 | -34.99246 | -58.74540 | 10547 ft | 338 kts | 265° |
| 2026-05-07 12:47 | -34.99313 | -58.77455 | 11072 ft | 350 kts | 275° |
| 2026-05-07 12:47 | -34.98927 | -58.80404 | 12158 ft | 352 kts | 281° |
| 2026-05-07 12:47 | -34.98464 | -58.83295 | 13717 ft | 344 kts | 277° |
| 2026-05-07 12:48 | -34.98359 | -58.86226 | 14980 ft | 349 kts | 272° |
| 2026-05-07 12:48 | -34.98578 | -58.89215 | 15960 ft | 360 kts | 268° |
| 2026-05-07 12:48 | -34.98868 | -58.92278 | 16966 ft | 364 kts | 270° |
| 2026-05-07 12:48 | -34.99125 | -58.95363 | 17995 ft | 368 kts | 272° |
| 2026-05-07 12:49 | -34.99373 | -58.98481 | 18815 ft | 372 kts | 272° |
| 2026-05-07 12:49 | -34.99620 | -59.01591 | 19659 ft | 374 kts | 272° |
| 2026-05-07 12:49 | -34.99874 | -59.04765 | 20545 ft | 377 kts | 272° |
| 2026-05-07 12:49 | -35.00131 | -59.07964 | 21404 ft | 380 kts | 273° |
| 2026-05-07 12:50 | -35.00391 | -59.11190 | 22198 ft | 384 kts | 273° |
| 2026-05-07 12:50 | -35.00652 | -59.14449 | 22963 ft | 388 kts | 274° |
| 2026-05-07 12:50 | -35.00917 | -59.17747 | 23652 ft | 392 kts | 274° |
| 2026-05-07 12:50 | -35.01181 | -59.21076 | 24280 ft | 396 kts | 274° |
| 2026-05-07 12:51 | -35.01351 | -59.24405 | 24785 ft | 389 kts | 282° |
| 2026-05-07 12:51 | -35.00780 | -59.27581 | 25236 ft | 380 kts | 297° |
| 2026-05-07 12:51 | -34.99671 | -59.30439 | 25880 ft | 376 kts | 304° |
| 2026-05-07 12:51 | -34.98188 | -59.33051 | 26562 ft | 373 kts | 315° |
| 2026-05-07 12:52 | -34.96303 | -59.35226 | 27111 ft | 374 kts | 320° |
| 2026-05-07 12:52 | -34.94341 | -59.37338 | 27647 ft | 379 kts | 320° |
| 2026-05-07 12:52 | -34.92354 | -59.39472 | 28169 ft | 382 kts | 320° |
| 2026-05-07 12:52 | -34.90360 | -59.41633 | 28725 ft | 385 kts | 320° |
| 2026-05-07 12:53 | -34.88354 | -59.43824 | 29252 ft | 388 kts | 320° |
| 2026-05-07 12:53 | -34.86341 | -59.46038 | 29729 ft | 391 kts | 320° |
| 2026-05-07 12:53 | -34.84317 | -59.48270 | 30106 ft | 394 kts | 320° |
| 2026-05-07 12:53 | -34.82285 | -59.50515 | 30592 ft | 394 kts | 320° |
| 2026-05-07 12:54 | -34.80258 | -59.52754 | 31103 ft | 392 kts | 320° |
| 2026-05-07 12:54 | -34.78265 | -59.54955 | 31605 ft | 392 kts | 321° |
| 2026-05-07 12:54 | -34.76249 | -59.57177 | 32061 ft | 391 kts | 321° |
| 2026-05-07 12:54 | -34.74227 | -59.59404 | 32513 ft | 390 kts | 320° |
| 2026-05-07 12:55 | -34.72423 | -59.61908 | 32941 ft | 398 kts | 310° |
| 2026-05-07 12:55 | -34.71017 | -59.64839 | 33415 ft | 403 kts | 304° |
| 2026-05-07 12:55 | -34.69838 | -59.67945 | 33854 ft | 406 kts | 300° |
| 2026-05-07 12:55 | -34.69003 | -59.71263 | 34172 ft | 419 kts | 290° |
| 2026-05-07 12:56 | -34.68561 | -59.74748 | 34464 ft | 424 kts | 288° |
| 2026-05-07 12:56 | -34.68166 | -59.78322 | 34616 ft | 429 kts | 287° |
| 2026-05-07 12:56 | -34.67387 | -59.85534 | 34672 ft | 427 kts | 287° |
| 2026-05-07 12:57 | -34.66990 | -59.89093 | 34773 ft | 425 kts | 287° |
| 2026-05-07 12:57 | -34.66583 | -59.92646 | 34712 ft | 421 kts | 287° |
| 2026-05-07 12:57 | -34.65756 | -59.99638 | 34709 ft | 415 kts | 288° |
| 2026-05-07 12:58 | -34.64926 | -60.06516 | 34705 ft | 413 kts | 288° |
| 2026-05-07 12:58 | -34.64086 | -60.13415 | 34716 ft | 414 kts | 288° |
| 2026-05-07 12:59 | -34.63239 | -60.20348 | 34755 ft | 417 kts | 287° |
| 2026-05-07 12:59 | -34.62382 | -60.27348 | 34726 ft | 419 kts | 287° |
| 2026-05-07 13:00 | -34.61527 | -60.34316 | 34725 ft | 420 kts | 287° |
| 2026-05-07 13:00 | -34.60661 | -60.41346 | 34732 ft | 420 kts | 287° |
| 2026-05-07 13:01 | -34.59794 | -60.48353 | 34773 ft | 419 kts | 287° |
| 2026-05-07 13:01 | -34.58923 | -60.55344 | 34747 ft | 418 kts | 287° |
| 2026-05-07 13:02 | -34.58052 | -60.62308 | 34738 ft | 416 kts | 287° |
| 2026-05-07 13:02 | -34.57180 | -60.69246 | 34746 ft | 415 kts | 287° |
| 2026-05-07 13:03 | -34.56305 | -60.76163 | 34822 ft | 414 kts | 287° |
| 2026-05-07 13:03 | -34.55426 | -60.83069 | 34770 ft | 418 kts | 287° |
| 2026-05-07 13:04 | -34.54534 | -60.90074 | 34773 ft | 421 kts | 287° |
| 2026-05-07 13:04 | -34.53589 | -60.97083 | 34771 ft | 421 kts | 288° |
| 2026-05-07 13:05 | -34.52499 | -61.04064 | 34774 ft | 420 kts | 289° |
| 2026-05-07 13:05 | -34.51393 | -61.11050 | 34803 ft | 422 kts | 288° |
| 2026-05-07 13:06 | -34.50305 | -61.18010 | 34793 ft | 422 kts | 288° |
| 2026-05-07 13:06 | -34.49213 | -61.25020 | 34801 ft | 422 kts | 288° |
| 2026-05-07 13:07 | -34.48121 | -61.32013 | 34797 ft | 421 kts | 288° |
| 2026-05-07 13:07 | -34.47024 | -61.38995 | 34816 ft | 422 kts | 287° |
| 2026-05-07 13:08 | -34.45930 | -61.45940 | 34819 ft | 422 kts | 287° |
| 2026-05-07 13:08 | -34.44826 | -61.52924 | 34816 ft | 422 kts | 288° |
| 2026-05-07 13:09 | -34.43712 | -61.59906 | 34814 ft | 421 kts | 288° |
| 2026-05-07 13:09 | -34.42593 | -61.66874 | 34820 ft | 421 kts | 288° |
| 2026-05-07 13:10 | -34.41471 | -61.73836 | 34825 ft | 421 kts | 288° |
| 2026-05-07 13:10 | -34.40345 | -61.80799 | 34828 ft | 421 kts | 288° |
| 2026-05-07 13:11 | -34.39215 | -61.87763 | 34840 ft | 421 kts | 288° |
| 2026-05-07 13:11 | -34.38088 | -61.94686 | 34867 ft | 422 kts | 287° |
| 2026-05-07 13:12 | -34.36944 | -62.01685 | 34842 ft | 424 kts | 287° |
| 2026-05-07 13:12 | -34.35794 | -62.08703 | 34842 ft | 425 kts | 287° |
| 2026-05-07 13:13 | -34.34639 | -62.15719 | 34837 ft | 424 kts | 287° |
| 2026-05-07 13:13 | -34.33486 | -62.22686 | 34894 ft | 424 kts | 287° |
| 2026-05-07 13:14 | -34.32319 | -62.29706 | 34867 ft | 426 kts | 287° |
| 2026-05-07 13:14 | -34.31147 | -62.36736 | 34861 ft | 427 kts | 287° |
| 2026-05-07 13:15 | -34.30113 | -62.42922 | 34867 ft | 427 kts | 287° |
| 2026-05-07 13:15 | -34.28932 | -62.49967 | 34866 ft | 428 kts | 287° |
| 2026-05-07 13:16 | -34.27751 | -62.56982 | 34869 ft | 430 kts | 286° |
| 2026-05-07 13:16 | -34.26551 | -62.64082 | 34871 ft | 432 kts | 286° |
| 2026-05-07 13:17 | -34.25342 | -62.71218 | 34877 ft | 432 kts | 286° |
| 2026-05-07 13:17 | -34.24131 | -62.78335 | 34880 ft | 432 kts | 286° |
| 2026-05-07 13:18 | -34.22924 | -62.85397 | 34886 ft | 432 kts | 285° |
| 2026-05-07 13:18 | -34.21694 | -62.92569 | 34893 ft | 434 kts | 285° |
| 2026-05-07 13:19 | -34.20470 | -62.99687 | 34887 ft | 436 kts | 285° |
| 2026-05-07 13:19 | -34.19228 | -63.06874 | 34897 ft | 438 kts | 285° |
| 2026-05-07 13:20 | -34.17980 | -63.14077 | 34923 ft | 439 kts | 285° |
| 2026-05-07 13:20 | -34.16716 | -63.21337 | 34906 ft | 442 kts | 285° |
| 2026-05-07 13:21 | -34.15446 | -63.28621 | 34895 ft | 444 kts | 285° |
| 2026-05-07 13:21 | -34.14174 | -63.35884 | 34901 ft | 444 kts | 285° |
| 2026-05-07 13:22 | -34.12793 | -63.43145 | 34910 ft | 443 kts | 287° |
| 2026-05-07 13:22 | -34.11341 | -63.50386 | 34929 ft | 445 kts | 286° |
| 2026-05-07 13:23 | -34.09894 | -63.57649 | 34922 ft | 446 kts | 286° |
| 2026-05-07 13:23 | -34.08449 | -63.64939 | 34927 ft | 447 kts | 286° |
| 2026-05-07 13:24 | -34.06999 | -63.72248 | 34930 ft | 448 kts | 286° |
| 2026-05-07 13:24 | -34.05543 | -63.79556 | 34945 ft | 448 kts | 285° |
| 2026-05-07 13:25 | -34.04082 | -63.86871 | 34935 ft | 448 kts | 285° |
| 2026-05-07 13:25 | -34.02621 | -63.94167 | 34941 ft | 447 kts | 285° |
| 2026-05-07 13:26 | -34.01169 | -64.01414 | 34951 ft | 447 kts | 285° |
| 2026-05-07 13:26 | -33.99704 | -64.08698 | 34955 ft | 447 kts | 284° |
| 2026-05-07 13:27 | -33.98235 | -64.15988 | 34958 ft | 448 kts | 284° |
| 2026-05-07 13:27 | -33.96759 | -64.23282 | 34958 ft | 448 kts | 284° |
| 2026-05-07 13:28 | -33.95278 | -64.30577 | 34964 ft | 448 kts | 284° |
| 2026-05-07 13:28 | -33.93794 | -64.37866 | 34963 ft | 448 kts | 284° |
| 2026-05-07 13:29 | -33.92306 | -64.45157 | 34972 ft | 449 kts | 284° |
| 2026-05-07 13:29 | -33.90831 | -64.52425 | 34978 ft | 450 kts | 283° |
| 2026-05-07 13:30 | -33.89781 | -64.58578 | 34985 ft | 451 kts | 281° |
| 2026-05-07 13:30 | -33.88618 | -64.66002 | 34991 ft | 452 kts | 281° |
| 2026-05-07 13:31 | -33.87433 | -64.73431 | 34998 ft | 452 kts | 281° |
| 2026-05-07 13:31 | -33.86215 | -64.80864 | 34998 ft | 452 kts | 281° |
| 2026-05-07 13:32 | -33.84981 | -64.88295 | 34999 ft | 452 kts | 281° |
| 2026-05-07 13:32 | -33.83753 | -64.95658 | 35000 ft | 452 kts | 282° |
| 2026-05-07 13:33 | -33.82509 | -65.03076 | 35005 ft | 452 kts | 280° |
| 2026-05-07 13:33 | -33.81264 | -65.10490 | 35012 ft | 453 kts | 280° |
| 2026-05-07 13:34 | -33.79383 | -65.21637 | 35018 ft | 454 kts | 280° |
| 2026-05-07 13:35 | -33.78124 | -65.29063 | 35025 ft | 454 kts | 280° |
| 2026-05-07 13:35 | -33.76860 | -65.36478 | 35028 ft | 455 kts | 279° |
| 2026-05-07 13:36 | -33.75584 | -65.43951 | 35034 ft | 457 kts | 279° |
| 2026-05-07 13:36 | -33.74298 | -65.51445 | 34974 ft | 458 kts | 280° |
| 2026-05-07 13:37 | -33.73007 | -65.58944 | 34979 ft | 458 kts | 280° |
| 2026-05-07 13:37 | -33.71711 | -65.66438 | 35031 ft | 458 kts | 279° |
| 2026-05-07 13:38 | -33.70410 | -65.73936 | 35037 ft | 459 kts | 279° |
| 2026-05-07 13:38 | -33.69109 | -65.81403 | 35043 ft | 459 kts | 279° |
| 2026-05-07 13:39 | -33.67796 | -65.88917 | 35045 ft | 460 kts | 279° |
| 2026-05-07 13:39 | -33.66474 | -65.96442 | 35042 ft | 460 kts | 278° |
| 2026-05-07 13:40 | -33.65149 | -66.03965 | 35047 ft | 461 kts | 278° |
| 2026-05-07 13:40 | -33.63824 | -66.11464 | 35054 ft | 462 kts | 278° |
| 2026-05-07 13:41 | -33.62484 | -66.19015 | 35043 ft | 462 kts | 278° |
| 2026-05-07 13:41 | -33.61139 | -66.26563 | 35022 ft | 462 kts | 278° |
| 2026-05-07 13:42 | -33.59790 | -66.34103 | 35044 ft | 462 kts | 278° |
| 2026-05-07 13:42 | -33.58446 | -66.41597 | 35042 ft | 462 kts | 278° |
| 2026-05-07 13:43 | -33.57088 | -66.49137 | 35041 ft | 462 kts | 278° |
| 2026-05-07 13:43 | -33.55724 | -66.56677 | 35047 ft | 462 kts | 278° |
| 2026-05-07 13:44 | -33.54358 | -66.64205 | 35049 ft | 462 kts | 276° |
| 2026-05-07 13:44 | -33.52985 | -66.71744 | 35052 ft | 462 kts | 276° |
| 2026-05-07 13:45 | -33.51609 | -66.79271 | 35053 ft | 462 kts | 276° |
| 2026-05-07 13:45 | -33.50229 | -66.86796 | 35048 ft | 462 kts | 277° |
| 2026-05-07 13:46 | -33.48853 | -66.94266 | 35060 ft | 462 kts | 276° |
| 2026-05-07 13:46 | -33.47462 | -67.01804 | 35067 ft | 464 kts | 276° |
| 2026-05-07 13:47 | -33.46062 | -67.09360 | 35066 ft | 466 kts | 276° |
| 2026-05-07 13:47 | -33.44649 | -67.16952 | 35070 ft | 467 kts | 276° |
| 2026-05-07 13:48 | -33.43230 | -67.24543 | 35049 ft | 467 kts | 275° |
| 2026-05-07 13:48 | -33.41804 | -67.32152 | 35077 ft | 469 kts | 275° |
| 2026-05-07 13:49 | -33.40379 | -67.39734 | 35078 ft | 471 kts | 275° |
| 2026-05-07 13:49 | -33.38932 | -67.47395 | 35082 ft | 472 kts | 275° |
| 2026-05-07 13:50 | -33.37479 | -67.55062 | 35033 ft | 472 kts | 274° |
| 2026-05-07 13:50 | -33.36021 | -67.62726 | 35079 ft | 472 kts | 273° |
| 2026-05-07 13:51 | -33.34560 | -67.70393 | 35087 ft | 473 kts | 273° |
| 2026-05-07 13:51 | -33.33089 | -67.78083 | 35086 ft | 475 kts | 274° |
| 2026-05-07 13:52 | -33.31608 | -67.85783 | 35081 ft | 475 kts | 274° |
| 2026-05-07 13:52 | -33.30131 | -67.93439 | 35085 ft | 475 kts | 274° |
| 2026-05-07 13:53 | -33.28641 | -68.01145 | 35085 ft | 475 kts | 274° |
| 2026-05-07 13:53 | -33.27145 | -68.08853 | 35084 ft | 475 kts | 274° |
| 2026-05-07 13:54 | -33.25646 | -68.16549 | 35069 ft | 474 kts | 274° |
| 2026-05-07 13:54 | -33.24155 | -68.24170 | 35062 ft | 473 kts | 272° |
| 2026-05-07 13:55 | -33.22655 | -68.31829 | 35070 ft | 474 kts | 272° |
| 2026-05-07 13:55 | -33.21147 | -68.39501 | 35081 ft | 475 kts | 272° |
| 2026-05-07 13:56 | -33.19630 | -68.47187 | 35074 ft | 476 kts | 272° |
| 2026-05-07 13:56 | -33.18106 | -68.54880 | 35027 ft | 476 kts | 271° |
| 2026-05-07 13:57 | -33.16574 | -68.62584 | 35062 ft | 477 kts | 271° |
| 2026-05-07 13:57 | -33.15032 | -68.70300 | 35077 ft | 478 kts | 271° |
| 2026-05-07 13:58 | -33.13490 | -68.77988 | 35066 ft | 479 kts | 271° |
| 2026-05-07 13:58 | -33.11935 | -68.85712 | 35059 ft | 478 kts | 271° |
| 2026-05-07 13:59 | -33.10379 | -68.93420 | 35053 ft | 477 kts | 270° |
| 2026-05-07 13:59 | -33.08819 | -69.01120 | 35062 ft | 477 kts | 270° |
| 2026-05-07 14:00 | -33.07269 | -69.08751 | 35057 ft | 476 kts | 270° |
| 2026-05-07 14:00 | -33.05709 | -69.16429 | 35050 ft | 477 kts | 270° |
| 2026-05-07 14:01 | -33.04132 | -69.24119 | 35065 ft | 476 kts | 269° |
| 2026-05-07 14:01 | -33.02570 | -69.31642 | 34923 ft | 458 kts | 269° |
| 2026-05-07 14:01 | -33.01811 | -69.35294 | 34530 ft | 452 kts | 268° |
| 2026-05-07 14:02 | -33.01062 | -69.38939 | 33897 ft | 453 kts | 267° |
| 2026-05-07 14:02 | -33.00324 | -69.42584 | 33413 ft | 452 kts | 267° |
| 2026-05-07 14:02 | -32.99576 | -69.46218 | 32814 ft | 448 kts | 267° |
| 2026-05-07 14:02 | -32.98833 | -69.49796 | 32384 ft | 440 kts | 268° |
| 2026-05-07 14:03 | -32.98111 | -69.53283 | 32010 ft | 437 kts | 268° |
| 2026-05-07 14:03 | -32.97342 | -69.56778 | 31591 ft | 435 kts | 268° |
| 2026-05-07 14:03 | -32.96611 | -69.60257 | 31058 ft | 431 kts | 268° |
| 2026-05-07 14:03 | -32.95907 | -69.63721 | 30491 ft | 429 kts | 268° |
| 2026-05-07 14:04 | -32.95162 | -69.67178 | 30133 ft | 429 kts | 268° |
| 2026-05-07 14:04 | -32.94454 | -69.70602 | 29841 ft | 423 kts | 268° |
| 2026-05-07 14:04 | -32.93766 | -69.73985 | 29534 ft | 418 kts | 268° |
| 2026-05-07 14:04 | -32.93080 | -69.77335 | 29118 ft | 414 kts | 268° |
| 2026-05-07 14:05 | -32.92393 | -69.80656 | 28861 ft | 411 kts | 268° |
| 2026-05-07 14:05 | -32.91707 | -69.83950 | 28479 ft | 409 kts | 268° |
| 2026-05-07 14:05 | -32.91023 | -69.87230 | 27998 ft | 406 kts | 268° |
| 2026-05-07 14:05 | -32.90341 | -69.90462 | 27716 ft | 400 kts | 268° |
| 2026-05-07 14:06 | -32.89669 | -69.93611 | 27141 ft | 385 kts | 268° |
| 2026-05-07 14:06 | -32.89029 | -69.96624 | 26202 ft | 377 kts | 268° |
| 2026-05-07 14:06 | -32.88398 | -69.99628 | 25137 ft | 371 kts | 268° |
| 2026-05-07 14:06 | -32.87936 | -70.02572 | 24303 ft | 355 kts | 263° |
| 2026-05-07 14:07 | -32.87650 | -70.05449 | 23331 ft | 345 kts | 260° |
| 2026-05-07 14:07 | -32.87450 | -70.08290 | 22791 ft | 345 kts | 261° |
| 2026-05-07 14:07 | -32.87247 | -70.11137 | 22303 ft | 346 kts | 262° |
| 2026-05-07 14:07 | -32.87025 | -70.14003 | 21793 ft | 350 kts | 263° |
| 2026-05-07 14:08 | -32.86783 | -70.16893 | 21196 ft | 351 kts | 264° |
| 2026-05-07 14:08 | -32.86536 | -70.19799 | 20579 ft | 355 kts | 266° |
| 2026-05-07 14:08 | -32.86266 | -70.22736 | 19946 ft | 359 kts | 266° |
| 2026-05-07 14:08 | -32.85978 | -70.25695 | 19467 ft | 359 kts | 267° |
| 2026-05-07 14:09 | -32.85698 | -70.28651 | 18949 ft | 360 kts | 268° |
| 2026-05-07 14:09 | -32.85419 | -70.31627 | 18377 ft | 364 kts | 269° |
| 2026-05-07 14:09 | -32.85138 | -70.34630 | 17726 ft | 367 kts | 269° |
| 2026-05-07 14:09 | -32.84862 | -70.37632 | 17044 ft | 370 kts | 270° |
| 2026-05-07 14:10 | -32.84579 | -70.40678 | 16370 ft | 368 kts | 271° |
| 2026-05-07 14:10 | -32.84296 | -70.43610 | 15721 ft | 345 kts | 271° |
| 2026-05-07 14:10 | -32.84035 | -70.46363 | 15121 ft | 326 kts | 271° |
| 2026-05-07 14:10 | -32.83787 | -70.49002 | 14574 ft | 322 kts | 272° |
| 2026-05-07 14:11 | -32.83541 | -70.51675 | 14012 ft | 327 kts | 272° |
| 2026-05-07 14:11 | -32.83292 | -70.54331 | 13624 ft | 325 kts | 272° |
| 2026-05-07 14:11 | -32.83039 | -70.56993 | 13230 ft | 322 kts | 272° |
| 2026-05-07 14:11 | -32.82789 | -70.59624 | 12871 ft | 319 kts | 273° |
| 2026-05-07 14:12 | -32.82540 | -70.62245 | 12365 ft | 320 kts | 273° |
| 2026-05-07 14:12 | -32.82291 | -70.64867 | 12057 ft | 315 kts | 274° |
| 2026-05-07 14:12 | -32.82064 | -70.67413 | 11898 ft | 301 kts | 269° |
| 2026-05-07 14:12 | -32.82394 | -70.69774 | 11717 ft | 285 kts | 245° |
| 2026-05-07 14:13 | -32.83424 | -70.71749 | 11350 ft | 281 kts | 226° |
| 2026-05-07 14:13 | -32.84822 | -70.73354 | 11007 ft | 278 kts | 221° |
| 2026-05-07 14:13 | -32.86257 | -70.74900 | 10662 ft | 278 kts | 221° |
| 2026-05-07 14:13 | -32.87690 | -70.76458 | 10291 ft | 279 kts | 222° |
| 2026-05-07 14:14 | -32.89099 | -70.78005 | 10119 ft | 272 kts | 222° |
| 2026-05-07 14:14 | -32.90471 | -70.79517 | 9899 ft | 267 kts | 222° |
| 2026-05-07 14:14 | -32.91887 | -70.80863 | 9528 ft | 261 kts | 205° |
| 2026-05-07 14:14 | -32.93608 | -70.81398 | 9230 ft | 254 kts | 186° |
| 2026-05-07 14:15 | -32.95396 | -70.81634 | 8898 ft | 264 kts | 187° |
| 2026-05-07 14:15 | -32.97256 | -70.81913 | 8565 ft | 273 kts | 187° |
| 2026-05-07 14:15 | -32.99144 | -70.82170 | 8351 ft | 269 kts | 184° |
| 2026-05-07 14:15 | -33.00985 | -70.82246 | 8208 ft | 260 kts | 179° |
| 2026-05-07 14:16 | -33.02762 | -70.82198 | 8085 ft | 251 kts | 178° |
| 2026-05-07 14:16 | -33.04506 | -70.82112 | 7776 ft | 250 kts | 176° |
| 2026-05-07 14:16 | -33.06223 | -70.82019 | 7457 ft | 251 kts | 176° |
| 2026-05-07 14:16 | -33.07926 | -70.81928 | 7178 ft | 238 kts | 176° |
| 2026-05-07 14:17 | -33.09584 | -70.81839 | 6849 ft | 239 kts | 176° |
| 2026-05-07 14:17 | -33.11247 | -70.81750 | 6510 ft | 240 kts | 176° |
| 2026-05-07 14:17 | -33.12914 | -70.81663 | 6190 ft | 238 kts | 176° |
| 2026-05-07 14:17 | -33.14559 | -70.81576 | 5951 ft | 235 kts | 176° |
| 2026-05-07 14:18 | -33.15636 | -70.81518 | 5763 ft | 232 kts | 176° |
| 2026-05-07 14:18 | -33.17242 | -70.81432 | 5492 ft | 229 kts | 176° |
| 2026-05-07 14:18 | -33.18798 | -70.81350 | 5190 ft | 219 kts | 176° |
| 2026-05-07 14:18 | -33.20754 | -70.81248 | 4821 ft | 208 kts | 176° |
| 2026-05-07 14:19 | -33.22154 | -70.81173 | 4560 ft | 194 kts | 177° |
| 2026-05-07 14:19 | -33.23456 | -70.81104 | 4277 ft | 180 kts | 177° |
| 2026-05-07 14:19 | -33.24277 | -70.81061 | 4123 ft | 168 kts | 177° |
| 2026-05-07 14:19 | -33.25391 | -70.81001 | 3895 ft | 156 kts | 176° |
| 2026-05-07 14:20 | -33.26476 | -70.80944 | 3739 ft | 159 kts | 177° |
| 2026-05-07 14:20 | -33.27570 | -70.80885 | 3510 ft | 160 kts | 177° |
| 2026-05-07 14:20 | -33.28682 | -70.80826 | 3297 ft | 160 kts | 177° |
| 2026-05-07 14:20 | -33.29795 | -70.80767 | 3077 ft | 160 kts | 176° |
| 2026-05-07 14:21 | -33.30902 | -70.80708 | 2848 ft | 158 kts | 176° |
| 2026-05-07 14:21 | -33.31998 | -70.80650 | 2625 ft | 157 kts | 177° |
| 2026-05-07 14:21 | -33.33084 | -70.80593 | 2412 ft | 156 kts | 177° |
| 2026-05-07 14:21 | -33.34165 | -70.80536 | 2201 ft | 154 kts | 177° |
| 2026-05-07 14:22 | -33.35583 | -70.80461 | 1926 ft | 153 kts | 177° |
| 2026-05-07 14:22 | -33.36298 | -70.80421 | 1791 ft | 152 kts | 176° |
| 2026-05-07 14:22 | -33.37354 | -70.80367 | 1619 ft | 152 kts | 178° |
| 2026-05-07 14:22 | -33.38355 | -70.80312 | 1579 ft | 129 kts | 177° |
| 2026-05-07 14:23 | -33.39060 | -70.80273 | 1579 ft | 76 kts | 177° |
| 2026-05-07 14:23 | -33.39438 | -70.80252 | 1576 ft | 45 kts | 177° |
| 2026-05-07 14:23 | -33.39681 | -70.80239 | 1576 ft | 23 kts | 177° |
| 2026-05-07 14:23 | -33.39841 | -70.80227 | 1577 ft | 23 kts | 171° |
| 2026-05-07 14:24 | -33.39984 | -70.80144 | 1576 ft | 22 kts | 148° |
| 2026-05-07 14:24 | -33.40106 | -70.80053 | 1573 ft | 5 kts | 144° |
| 2026-05-07 14:24 | -33.40137 | -70.80024 | 1572 ft | 7 kts | 137° |
| 2026-05-07 14:24 | -33.40159 | -70.79972 | 1571 ft | 8 kts | 104° |
| 2026-05-07 14:25 | -33.40163 | -70.79902 | 1570 ft | 9 kts | 92° |
| 2026-05-07 14:25 | -33.40160 | -70.79829 | 1570 ft | 5 kts | 87° |
| 2026-05-07 14:25 | -33.40158 | -70.79794 | 1569 ft | 3 kts | 87° |
| 2026-05-07 14:25 | -33.40157 | -70.79763 | 1569 ft | 4 kts | 87° |
| 2026-05-07 14:26 | -33.40157 | -70.79725 | 1569 ft | 5 kts | 99° |
| 2026-05-07 14:26 | -33.40185 | -70.79703 | 1569 ft | 5 kts | 173° |
| 2026-05-07 14:26 | -33.40220 | -70.79700 | 1569 ft | 4 kts | 176° |
| 2026-05-07 14:26 | -33.40236 | -70.79699 | 1569 ft | 1 kts | 177° |
| 2026-05-07 14:27 | -33.40243 | -70.79699 | 1569 ft | 1 kts | 177° |
| 2026-05-07 14:27 | -33.40247 | -70.79699 | 1569 ft | 0 kts | 177° |